sensor_id;sensor_type;location;lat;lon;timestamp;P1;durP1;ratioP1;P2;durP2;ratioP2
59653;SDS011;66556;52.008;5.432;2023-03-05T00:02:46;15.2;;;3.5;;
59653;SDS011;66556;52.008;5.432;2023-03-05T00:04:22;17.3;;;3.5;;
59653;SDS011;66556;52.008;5.432;2023-03-05T00:05:58;17.91;;;3.8;;
59653;SDS011;66556;52.008;5.432;2023-03-05T00:09:11;15.2;;;3.8;;
59653;SDS011;66556;52.008;5.432;2023-03-05T00:10:53;16.7;;;3.9;;
59653;SDS011;66556;52.008;5.432;2023-03-05T00:12:31;20.0;;;3.9;;
59653;SDS011;66556;52.008;5.432;2023-03-05T00:14:08;15.8;;;3.6;;
59653;SDS011;66556;52.008;5.432;2023-03-05T00:17:21;15.6;;;3.8;;
59653;SDS011;66556;52.008;5.432;2023-03-05T00:18:58;15.9;;;4.0;;
59653;SDS011;66556;52.008;5.432;2023-03-05T00:20:36;17.61;;;4.3;;
59653;SDS011;66556;52.008;5.432;2023-03-05T00:23:48;18.0;;;4.1;;
59653;SDS011;66556;52.008;5.432;2023-03-05T00:25:26;16.0;;;3.7;;
59653;SDS011;66556;52.008;5.432;2023-03-05T00:27:02;14.5;;;3.9;;
59653;SDS011;66556;52.008;5.432;2023-03-05T00:28:39;18.41;;;4.41;;
59653;SDS011;66556;52.008;5.432;2023-03-05T00:31:53;16.3;;;3.8;;
59653;SDS011;66556;52.008;5.432;2023-03-05T00:33:29;12.9;;;3.6;;
59653;SDS011;66556;52.008;5.432;2023-03-05T00:35:05;15.8;;;4.0;;
59653;SDS011;66556;52.008;5.432;2023-03-05T00:38:21;16.0;;;3.7;;
59653;SDS011;66556;52.008;5.432;2023-03-05T00:39:57;16.5;;;3.8;;
59653;SDS011;66556;52.008;5.432;2023-03-05T00:41:34;14.7;;;4.0;;
59653;SDS011;66556;52.008;5.432;2023-03-05T00:44:46;16.7;;;4.0;;
59653;SDS011;66556;52.008;5.432;2023-03-05T00:46:22;17.3;;;3.9;;
59653;SDS011;66556;52.008;5.432;2023-03-05T00:47:59;21.7;;;4.41;;
59653;SDS011;66556;52.008;5.432;2023-03-05T00:49:36;19.11;;;4.2;;
59653;SDS011;66556;52.008;5.432;2023-03-05T00:52:50;18.2;;;3.8;;
59653;SDS011;66556;52.008;5.432;2023-03-05T00:54:27;17.91;;;4.2;;
59653;SDS011;66556;52.008;5.432;2023-03-05T00:56:03;18.2;;;4.2;;
59653;SDS011;66556;52.008;5.432;2023-03-05T00:59:16;15.5;;;3.8;;
59653;SDS011;66556;52.008;5.432;2023-03-05T01:00:55;15.9;;;4.0;;
59653;SDS011;66556;52.008;5.432;2023-03-05T01:02:32;14.2;;;4.1;;
59653;SDS011;66556;52.008;5.432;2023-03-05T01:05:45;14.2;;;4.0;;
59653;SDS011;66556;52.008;5.432;2023-03-05T01:07:21;18.2;;;4.5;;
59653;SDS011;66556;52.008;5.432;2023-03-05T01:08:57;20.7;;;4.7;;
59653;SDS011;66556;52.008;5.432;2023-03-05T01:10:33;17.0;;;4.2;;
59653;SDS011;66556;52.008;5.432;2023-03-05T01:13:45;14.8;;;4.61;;
59653;SDS011;66556;52.008;5.432;2023-03-05T01:15:23;14.7;;;4.5;;
59653;SDS011;66556;52.008;5.432;2023-03-05T01:17:00;18.41;;;5.2;;
59653;SDS011;66556;52.008;5.432;2023-03-05T01:20:16;18.91;;;5.2;;
59653;SDS011;66556;52.008;5.432;2023-03-05T01:21:55;14.9;;;4.7;;
59653;SDS011;66556;52.008;5.432;2023-03-05T01:23:32;21.7;;;5.5;;
59653;SDS011;66556;52.008;5.432;2023-03-05T01:25:09;16.9;;;5.0;;
59653;SDS011;66556;52.008;5.432;2023-03-05T01:28:23;17.41;;;4.7;;
59653;SDS011;66556;52.008;5.432;2023-03-05T01:30:00;15.9;;;4.8;;
59653;SDS011;66556;52.008;5.432;2023-03-05T01:31:36;16.3;;;4.7;;
59653;SDS011;66556;52.008;5.432;2023-03-05T01:34:49;15.8;;;4.41;;
59653;SDS011;66556;52.008;5.432;2023-03-05T01:36:25;22.9;;;5.2;;
59653;SDS011;66556;52.008;5.432;2023-03-05T01:38:02;15.1;;;4.2;;
59653;SDS011;66556;52.008;5.432;2023-03-05T01:41:14;16.61;;;4.2;;
59653;SDS011;66556;52.008;5.432;2023-03-05T01:42:57;17.11;;;5.11;;
59653;SDS011;66556;52.008;5.432;2023-03-05T01:44:35;17.8;;;4.91;;
59653;SDS011;66556;52.008;5.432;2023-03-05T01:46:43;17.8;;;4.91;;
59653;SDS011;66556;52.008;5.432;2023-03-05T01:48:20;16.8;;;4.61;;
59653;SDS011;66556;52.008;5.432;2023-03-05T01:51:35;18.3;;;4.8;;
59653;SDS011;66556;52.008;5.432;2023-03-05T01:53:16;22.3;;;5.3;;
59653;SDS011;66556;52.008;5.432;2023-03-05T01:54:54;16.2;;;4.61;;
59653;SDS011;66556;52.008;5.432;2023-03-05T01:56:34;15.0;;;4.3;;
59653;SDS011;66556;52.008;5.432;2023-03-05T01:59:50;14.6;;;4.7;;
59653;SDS011;66556;52.008;5.432;2023-03-05T02:01:31;15.2;;;4.3;;
59653;SDS011;66556;52.008;5.432;2023-03-05T02:03:18;15.5;;;4.5;;
59653;SDS011;66556;52.008;5.432;2023-03-05T02:04:59;14.3;;;4.1;;
59653;SDS011;66556;52.008;5.432;2023-03-05T02:08:18;16.2;;;4.61;;
59653;SDS011;66556;52.008;5.432;2023-03-05T02:09:58;16.5;;;4.2;;
59653;SDS011;66556;52.008;5.432;2023-03-05T02:11:34;16.0;;;4.41;;
59653;SDS011;66556;52.008;5.432;2023-03-05T02:14:52;18.11;;;4.61;;
59653;SDS011;66556;52.008;5.432;2023-03-05T02:16:29;16.5;;;4.41;;
59653;SDS011;66556;52.008;5.432;2023-03-05T02:18:08;15.8;;;4.8;;
59653;SDS011;66556;52.008;5.432;2023-03-05T02:19:46;18.2;;;4.7;;
59653;SDS011;66556;52.008;5.432;2023-03-05T02:23:11;12.7;;;4.2;;
59653;SDS011;66556;52.008;5.432;2023-03-05T02:24:48;17.5;;;4.7;;
59653;SDS011;66556;52.008;5.432;2023-03-05T02:26:26;15.8;;;4.7;;
59653;SDS011;66556;52.008;5.432;2023-03-05T02:28:05;15.4;;;4.7;;
59653;SDS011;66556;52.008;5.432;2023-03-05T02:31:23;15.6;;;4.41;;
59653;SDS011;66556;52.008;5.432;2023-03-05T02:33:01;15.6;;;4.8;;
59653;SDS011;66556;52.008;5.432;2023-03-05T02:34:38;18.8;;;4.7;;
59653;SDS011;66556;52.008;5.432;2023-03-05T02:37:52;18.7;;;5.11;;
59653;SDS011;66556;52.008;5.432;2023-03-05T02:39:29;16.61;;;5.11;;
59653;SDS011;66556;52.008;5.432;2023-03-05T02:41:07;14.4;;;4.7;;
59653;SDS011;66556;52.008;5.432;2023-03-05T02:42:44;18.7;;;4.61;;
59653;SDS011;66556;52.008;5.432;2023-03-05T02:45:58;17.0;;;4.41;;
59653;SDS011;66556;52.008;5.432;2023-03-05T02:47:34;18.41;;;4.5;;
59653;SDS011;66556;52.008;5.432;2023-03-05T02:49:10;16.61;;;4.61;;
59653;SDS011;66556;52.008;5.432;2023-03-05T02:52:23;13.1;;;4.0;;
59653;SDS011;66556;52.008;5.432;2023-03-05T02:53:59;12.9;;;4.1;;
59653;SDS011;66556;52.008;5.432;2023-03-05T02:55:36;13.2;;;3.8;;
59653;SDS011;66556;52.008;5.432;2023-03-05T02:57:13;15.9;;;4.61;;
59653;SDS011;66556;52.008;5.432;2023-03-05T03:00:25;15.9;;;4.61;;
59653;SDS011;66556;52.008;5.432;2023-03-05T03:02:02;15.3;;;4.0;;
59653;SDS011;66556;52.008;5.432;2023-03-05T03:03:38;18.41;;;4.0;;
59653;SDS011;66556;52.008;5.432;2023-03-05T03:06:53;14.4;;;4.3;;
59653;SDS011;66556;52.008;5.432;2023-03-05T03:08:29;16.61;;;3.9;;
59653;SDS011;66556;52.008;5.432;2023-03-05T03:10:05;17.91;;;3.9;;
59653;SDS011;66556;52.008;5.432;2023-03-05T03:13:18;13.1;;;3.7;;
59653;SDS011;66556;52.008;5.432;2023-03-05T03:14:54;15.6;;;3.9;;
59653;SDS011;66556;52.008;5.432;2023-03-05T03:16:32;16.61;;;3.8;;
59653;SDS011;66556;52.008;5.432;2023-03-05T03:18:10;13.2;;;3.5;;
59653;SDS011;66556;52.008;5.432;2023-03-05T03:21:24;15.0;;;3.6;;
59653;SDS011;66556;52.008;5.432;2023-03-05T03:23:00;17.61;;;3.8;;
59653;SDS011;66556;52.008;5.432;2023-03-05T03:24:37;15.1;;;3.5;;
59653;SDS011;66556;52.008;5.432;2023-03-05T03:27:51;14.0;;;4.2;;
59653;SDS011;66556;52.008;5.432;2023-03-05T03:29:28;14.6;;;3.7;;
59653;SDS011;66556;52.008;5.432;2023-03-05T03:31:05;13.9;;;3.4;;
59653;SDS011;66556;52.008;5.432;2023-03-05T03:34:17;14.2;;;3.6;;
59653;SDS011;66556;52.008;5.432;2023-03-05T03:35:55;14.0;;;3.7;;
59653;SDS011;66556;52.008;5.432;2023-03-05T03:37:31;14.4;;;3.5;;
59653;SDS011;66556;52.008;5.432;2023-03-05T03:39:09;11.2;;;3.1;;
59653;SDS011;66556;52.008;5.432;2023-03-05T03:42:22;13.1;;;3.3;;
59653;SDS011;66556;52.008;5.432;2023-03-05T03:43:59;13.2;;;3.3;;
59653;SDS011;66556;52.008;5.432;2023-03-05T03:45:38;12.5;;;3.3;;
59653;SDS011;66556;52.008;5.432;2023-03-05T03:48:53;13.6;;;3.4;;
59653;SDS011;66556;52.008;5.432;2023-03-05T03:50:30;11.1;;;3.1;;
59653;SDS011;66556;52.008;5.432;2023-03-05T03:52:06;10.8;;;3.2;;
59653;SDS011;66556;52.008;5.432;2023-03-05T03:53:43;13.6;;;3.1;;
59653;SDS011;66556;52.008;5.432;2023-03-05T03:56:55;13.7;;;3.3;;
59653;SDS011;66556;52.008;5.432;2023-03-05T03:58:31;13.7;;;3.4;;
59653;SDS011;66556;52.008;5.432;2023-03-05T04:00:08;11.9;;;3.6;;
59653;SDS011;66556;52.008;5.432;2023-03-05T04:03:22;11.9;;;3.3;;
59653;SDS011;66556;52.008;5.432;2023-03-05T04:04:58;12.7;;;3.3;;
59653;SDS011;66556;52.008;5.432;2023-03-05T04:06:34;13.0;;;3.3;;
59653;SDS011;66556;52.008;5.432;2023-03-05T04:09:46;15.6;;;3.1;;
59653;SDS011;66556;52.008;5.432;2023-03-05T04:11:23;13.1;;;2.8;;
59653;SDS011;66556;52.008;5.432;2023-03-05T04:13:00;11.2;;;2.9;;
59653;SDS011;66556;52.008;5.432;2023-03-05T04:14:36;12.9;;;3.2;;
59653;SDS011;66556;52.008;5.432;2023-03-05T04:17:50;10.9;;;2.8;;
59653;SDS011;66556;52.008;5.432;2023-03-05T04:19:26;15.6;;;3.7;;
59653;SDS011;66556;52.008;5.432;2023-03-05T04:21:03;9.0;;;2.9;;
59653;SDS011;66556;52.008;5.432;2023-03-05T04:24:17;9.71;;;3.1;;
59653;SDS011;66556;52.008;5.432;2023-03-05T04:25:53;13.7;;;2.7;;
59653;SDS011;66556;52.008;5.432;2023-03-05T04:27:29;11.8;;;2.9;;
59653;SDS011;66556;52.008;5.432;2023-03-05T04:30:41;15.7;;;3.3;;
59653;SDS011;66556;52.008;5.432;2023-03-05T04:32:17;14.9;;;3.1;;
59653;SDS011;66556;52.008;5.432;2023-03-05T04:33:54;15.2;;;3.0;;
59653;SDS011;66556;52.008;5.432;2023-03-05T04:37:07;17.11;;;3.5;;
59653;SDS011;66556;52.008;5.432;2023-03-05T04:38:43;11.7;;;3.2;;
59653;SDS011;66556;52.008;5.432;2023-03-05T04:40:20;14.4;;;3.7;;
59653;SDS011;66556;52.008;5.432;2023-03-05T04:41:57;13.2;;;3.2;;
59653;SDS011;66556;52.008;5.432;2023-03-05T04:45:10;13.2;;;3.4;;
59653;SDS011;66556;52.008;5.432;2023-03-05T04:46:47;11.7;;;3.2;;
59653;SDS011;66556;52.008;5.432;2023-03-05T04:48:23;13.7;;;3.4;;
59653;SDS011;66556;52.008;5.432;2023-03-05T04:51:36;13.4;;;3.7;;
59653;SDS011;66556;52.008;5.432;2023-03-05T04:53:12;12.5;;;3.4;;
59653;SDS011;66556;52.008;5.432;2023-03-05T04:54:49;16.8;;;3.4;;
59653;SDS011;66556;52.008;5.432;2023-03-05T04:58:01;9.81;;;3.1;;
59653;SDS011;66556;52.008;5.432;2023-03-05T04:59:38;12.1;;;3.2;;
59653;SDS011;66556;52.008;5.432;2023-03-05T05:01:15;13.0;;;3.5;;
59653;SDS011;66556;52.008;5.432;2023-03-05T05:02:52;8.6;;;2.6;;
59653;SDS011;66556;52.008;5.432;2023-03-05T05:06:06;13.8;;;3.5;;
59653;SDS011;66556;52.008;5.432;2023-03-05T05:07:43;11.9;;;3.7;;
59653;SDS011;66556;52.008;5.432;2023-03-05T05:09:19;12.7;;;3.8;;
59653;SDS011;66556;52.008;5.432;2023-03-05T05:12:36;12.6;;;3.2;;
59653;SDS011;66556;52.008;5.432;2023-03-05T05:14:12;11.8;;;3.4;;
59653;SDS011;66556;52.008;5.432;2023-03-05T05:15:49;10.0;;;2.9;;
59653;SDS011;66556;52.008;5.432;2023-03-05T05:17:25;14.1;;;3.4;;
59653;SDS011;66556;52.008;5.432;2023-03-05T05:20:38;11.7;;;3.5;;
59653;SDS011;66556;52.008;5.432;2023-03-05T05:22:14;13.9;;;3.5;;
59653;SDS011;66556;52.008;5.432;2023-03-05T05:23:51;8.1;;;3.0;;
59653;SDS011;66556;52.008;5.432;2023-03-05T05:27:03;15.1;;;4.0;;
59653;SDS011;66556;52.008;5.432;2023-03-05T05:28:39;11.0;;;2.8;;
59653;SDS011;66556;52.008;5.432;2023-03-05T05:30:16;11.8;;;3.1;;
59653;SDS011;66556;52.008;5.432;2023-03-05T05:33:29;12.1;;;3.9;;
59653;SDS011;66556;52.008;5.432;2023-03-05T05:35:06;11.7;;;3.3;;
59653;SDS011;66556;52.008;5.432;2023-03-05T05:36:43;13.8;;;3.3;;
59653;SDS011;66556;52.008;5.432;2023-03-05T05:38:19;10.1;;;3.3;;
59653;SDS011;66556;52.008;5.432;2023-03-05T05:41:34;11.9;;;3.5;;
59653;SDS011;66556;52.008;5.432;2023-03-05T05:43:10;14.7;;;3.5;;
59653;SDS011;66556;52.008;5.432;2023-03-05T05:44:46;12.3;;;3.6;;
59653;SDS011;66556;52.008;5.432;2023-03-05T05:48:00;8.31;;;3.6;;
59653;SDS011;66556;52.008;5.432;2023-03-05T05:49:36;14.8;;;3.9;;
59653;SDS011;66556;52.008;5.432;2023-03-05T05:51:14;9.9;;;3.2;;
59653;SDS011;66556;52.008;5.432;2023-03-05T05:52:55;12.9;;;3.5;;
59653;SDS011;66556;52.008;5.432;2023-03-05T05:56:09;12.4;;;3.6;;
59653;SDS011;66556;52.008;5.432;2023-03-05T05:57:47;13.6;;;3.7;;
59653;SDS011;66556;52.008;5.432;2023-03-05T05:59:23;12.3;;;3.4;;
59653;SDS011;66556;52.008;5.432;2023-03-05T06:02:36;12.3;;;3.4;;
59653;SDS011;66556;52.008;5.432;2023-03-05T06:04:13;11.0;;;3.5;;
59653;SDS011;66556;52.008;5.432;2023-03-05T06:05:49;10.3;;;3.1;;
59653;SDS011;66556;52.008;5.432;2023-03-05T06:09:02;12.1;;;3.9;;
59653;SDS011;66556;52.008;5.432;2023-03-05T06:10:39;11.7;;;4.0;;
59653;SDS011;66556;52.008;5.432;2023-03-05T06:12:15;14.1;;;3.9;;
59653;SDS011;66556;52.008;5.432;2023-03-05T06:13:52;11.3;;;3.8;;
59653;SDS011;66556;52.008;5.432;2023-03-05T06:17:05;13.1;;;3.7;;
59653;SDS011;66556;52.008;5.432;2023-03-05T06:18:41;12.8;;;3.7;;
59653;SDS011;66556;52.008;5.432;2023-03-05T06:20:19;12.3;;;4.0;;
59653;SDS011;66556;52.008;5.432;2023-03-05T06:23:32;8.6;;;3.8;;
59653;SDS011;66556;52.008;5.432;2023-03-05T06:25:09;14.1;;;4.41;;
59653;SDS011;66556;52.008;5.432;2023-03-05T06:26:46;11.6;;;4.3;;
59653;SDS011;66556;52.008;5.432;2023-03-05T06:29:59;10.0;;;4.1;;
59653;SDS011;66556;52.008;5.432;2023-03-05T06:31:36;13.5;;;4.41;;
59653;SDS011;66556;52.008;5.432;2023-03-05T06:33:14;14.2;;;4.3;;
59653;SDS011;66556;52.008;5.432;2023-03-05T06:34:50;11.0;;;4.1;;
59653;SDS011;66556;52.008;5.432;2023-03-05T06:38:05;10.21;;;4.1;;
59653;SDS011;66556;52.008;5.432;2023-03-05T06:39:43;12.3;;;4.61;;
59653;SDS011;66556;52.008;5.432;2023-03-05T06:41:21;13.4;;;4.41;;
59653;SDS011;66556;52.008;5.432;2023-03-05T06:44:37;11.3;;;4.41;;
59653;SDS011;66556;52.008;5.432;2023-03-05T06:46:15;10.7;;;3.7;;
59653;SDS011;66556;52.008;5.432;2023-03-05T06:47:53;14.1;;;4.2;;
59653;SDS011;66556;52.008;5.432;2023-03-05T06:49:29;13.7;;;4.1;;
59653;SDS011;66556;52.008;5.432;2023-03-05T06:52:49;12.2;;;4.7;;
59653;SDS011;66556;52.008;5.432;2023-03-05T06:54:25;12.0;;;4.61;;
59653;SDS011;66556;52.008;5.432;2023-03-05T06:56:01;11.1;;;5.11;;
59653;SDS011;66556;52.008;5.432;2023-03-05T06:59:14;11.0;;;4.61;;
59653;SDS011;66556;52.008;5.432;2023-03-05T07:00:52;10.5;;;4.1;;
59653;SDS011;66556;52.008;5.432;2023-03-05T07:02:28;10.21;;;4.3;;
59653;SDS011;66556;52.008;5.432;2023-03-05T07:04:04;10.4;;;4.1;;
59653;SDS011;66556;52.008;5.432;2023-03-05T07:07:18;11.4;;;4.2;;
59653;SDS011;66556;52.008;5.432;2023-03-05T07:08:54;12.2;;;4.2;;
59653;SDS011;66556;52.008;5.432;2023-03-05T07:10:33;11.9;;;4.61;;
59653;SDS011;66556;52.008;5.432;2023-03-05T07:15:26;11.9;;;3.9;;
59653;SDS011;66556;52.008;5.432;2023-03-05T07:17:03;11.6;;;4.3;;
59653;SDS011;66556;52.008;5.432;2023-03-05T07:20:17;9.81;;;3.9;;
59653;SDS011;66556;52.008;5.432;2023-03-05T07:21:54;11.3;;;3.7;;
59653;SDS011;66556;52.008;5.432;2023-03-05T07:23:30;10.6;;;4.0;;
59653;SDS011;66556;52.008;5.432;2023-03-05T07:25:07;10.0;;;4.0;;
59653;SDS011;66556;52.008;5.432;2023-03-05T07:28:20;11.7;;;4.0;;
59653;SDS011;66556;52.008;5.432;2023-03-05T07:29:57;12.2;;;4.3;;
59653;SDS011;66556;52.008;5.432;2023-03-05T07:31:34;11.0;;;4.3;;
59653;SDS011;66556;52.008;5.432;2023-03-05T07:34:46;9.71;;;3.8;;
59653;SDS011;66556;52.008;5.432;2023-03-05T07:36:22;8.6;;;3.7;;
59653;SDS011;66556;52.008;5.432;2023-03-05T07:37:59;7.6;;;3.4;;
59653;SDS011;66556;52.008;5.432;2023-03-05T07:41:13;8.0;;;3.3;;
59653;SDS011;66556;52.008;5.432;2023-03-05T07:42:51;9.6;;;3.2;;
59653;SDS011;66556;52.008;5.432;2023-03-05T07:44:27;8.0;;;3.1;;
59653;SDS011;66556;52.008;5.432;2023-03-05T07:46:03;8.31;;;3.2;;
59653;SDS011;66556;52.008;5.432;2023-03-05T07:49:18;9.31;;;2.8;;
59653;SDS011;66556;52.008;5.432;2023-03-05T07:51:02;6.5;;;2.5;;
59653;SDS011;66556;52.008;5.432;2023-03-05T07:52:41;5.7;;;2.8;;
59653;SDS011;66556;52.008;5.432;2023-03-05T07:54:17;7.4;;;2.6;;
59653;SDS011;66556;52.008;5.432;2023-03-05T07:57:30;8.5;;;2.6;;
59653;SDS011;66556;52.008;5.432;2023-03-05T07:59:07;7.1;;;2.8;;
59653;SDS011;66556;52.008;5.432;2023-03-05T08:00:46;7.2;;;2.7;;
59653;SDS011;66556;52.008;5.432;2023-03-05T08:04:00;8.2;;;2.6;;
59653;SDS011;66556;52.008;5.432;2023-03-05T08:05:37;11.2;;;2.8;;
59653;SDS011;66556;52.008;5.432;2023-03-05T08:07:14;8.2;;;2.21;;
59653;SDS011;66556;52.008;5.432;2023-03-05T08:10:28;5.7;;;2.31;;
59653;SDS011;66556;52.008;5.432;2023-03-05T08:12:05;7.2;;;2.21;;
59653;SDS011;66556;52.008;5.432;2023-03-05T08:13:42;6.9;;;2.1;;
59653;SDS011;66556;52.008;5.432;2023-03-05T08:15:20;11.2;;;2.4;;
59653;SDS011;66556;52.008;5.432;2023-03-05T08:18:32;7.9;;;2.6;;
59653;SDS011;66556;52.008;5.432;2023-03-05T08:20:09;11.6;;;2.6;;
59653;SDS011;66556;52.008;5.432;2023-03-05T08:21:47;6.7;;;2.21;;
59653;SDS011;66556;52.008;5.432;2023-03-05T08:25:01;7.2;;;2.31;;
59653;SDS011;66556;52.008;5.432;2023-03-05T08:26:39;6.9;;;2.21;;
59653;SDS011;66556;52.008;5.432;2023-03-05T08:28:16;6.4;;;2.31;;
59653;SDS011;66556;52.008;5.432;2023-03-05T08:29:52;7.6;;;2.0;;
59653;SDS011;66556;52.008;5.432;2023-03-05T08:33:05;8.6;;;2.4;;
59653;SDS011;66556;52.008;5.432;2023-03-05T08:34:42;6.7;;;2.6;;
59653;SDS011;66556;52.008;5.432;2023-03-05T08:36:18;5.7;;;2.31;;
59653;SDS011;66556;52.008;5.432;2023-03-05T08:39:31;5.2;;;2.31;;
59653;SDS011;66556;52.008;5.432;2023-03-05T08:41:07;6.9;;;2.4;;
59653;SDS011;66556;52.008;5.432;2023-03-05T08:42:43;6.5;;;2.31;;
59653;SDS011;66556;52.008;5.432;2023-03-05T08:45:58;6.7;;;2.21;;
59653;SDS011;66556;52.008;5.432;2023-03-05T08:47:36;5.9;;;2.4;;
59653;SDS011;66556;52.008;5.432;2023-03-05T08:49:13;4.8;;;2.5;;
59653;SDS011;66556;52.008;5.432;2023-03-05T08:50:50;5.9;;;2.4;;
59653;SDS011;66556;52.008;5.432;2023-03-05T08:54:03;7.1;;;2.5;;
59653;SDS011;66556;52.008;5.432;2023-03-05T08:55:40;7.6;;;3.2;;
59653;SDS011;66556;52.008;5.432;2023-03-05T08:57:16;6.6;;;2.1;;
59653;SDS011;66556;52.008;5.432;2023-03-05T09:00:28;5.5;;;2.0;;
59653;SDS011;66556;52.008;5.432;2023-03-05T09:02:05;6.4;;;2.21;;
59653;SDS011;66556;52.008;5.432;2023-03-05T09:03:41;5.3;;;1.9;;
59653;SDS011;66556;52.008;5.432;2023-03-05T09:06:54;4.5;;;1.7;;
59653;SDS011;66556;52.008;5.432;2023-03-05T09:08:32;4.8;;;1.8;;
59653;SDS011;66556;52.008;5.432;2023-03-05T09:10:10;3.9;;;1.6;;
59653;SDS011;66556;52.008;5.432;2023-03-05T09:11:47;3.8;;;1.6;;
59653;SDS011;66556;52.008;5.432;2023-03-05T09:15:02;4.7;;;2.1;;
59653;SDS011;66556;52.008;5.432;2023-03-05T09:16:39;3.6;;;2.0;;
59653;SDS011;66556;52.008;5.432;2023-03-05T09:18:15;4.41;;;1.7;;
59653;SDS011;66556;52.008;5.432;2023-03-05T09:21:27;4.1;;;1.8;;
59653;SDS011;66556;52.008;5.432;2023-03-05T09:23:03;3.9;;;1.7;;
59653;SDS011;66556;52.008;5.432;2023-03-05T09:24:39;5.0;;;1.7;;
59653;SDS011;66556;52.008;5.432;2023-03-05T09:27:54;5.2;;;1.9;;
59653;SDS011;66556;52.008;5.432;2023-03-05T09:29:30;3.4;;;1.5;;
59653;SDS011;66556;52.008;5.432;2023-03-05T09:31:07;4.41;;;1.7;;
59653;SDS011;66556;52.008;5.432;2023-03-05T09:32:44;3.6;;;1.5;;
59653;SDS011;66556;52.008;5.432;2023-03-05T09:35:58;2.9;;;1.6;;
59653;SDS011;66556;52.008;5.432;2023-03-05T09:37:35;2.9;;;1.7;;
59653;SDS011;66556;52.008;5.432;2023-03-05T09:39:12;3.2;;;1.3;;
59653;SDS011;66556;52.008;5.432;2023-03-05T09:42:42;4.8;;;1.7;;
59653;SDS011;66556;52.008;5.432;2023-03-05T09:44:37;4.61;;;1.5;;
59653;SDS011;66556;52.008;5.432;2023-03-05T09:46:27;5.4;;;1.6;;
59653;SDS011;66556;52.008;5.432;2023-03-05T09:48:14;2.9;;;1.4;;
59653;SDS011;66556;52.008;5.432;2023-03-05T09:49:57;4.0;;;1.5;;
59653;SDS011;66556;52.008;5.432;2023-03-05T09:51:38;3.6;;;2.0;;
59653;SDS011;66556;52.008;5.432;2023-03-05T09:55:09;2.5;;;1.5;;
59653;SDS011;66556;52.008;5.432;2023-03-05T09:57:00;5.3;;;1.7;;
59653;SDS011;66556;52.008;5.432;2023-03-05T09:58:40;4.61;;;1.6;;
59653;SDS011;66556;52.008;5.432;2023-03-05T10:00:23;4.5;;;1.7;;
59653;SDS011;66556;52.008;5.432;2023-03-05T10:02:12;5.2;;;1.7;;
59653;SDS011;66556;52.008;5.432;2023-03-05T10:05:42;3.6;;;1.6;;
59653;SDS011;66556;52.008;5.432;2023-03-05T10:07:26;2.8;;;1.4;;
59653;SDS011;66556;52.008;5.432;2023-03-05T10:09:06;4.2;;;1.3;;
59653;SDS011;66556;52.008;5.432;2023-03-05T10:10:51;3.9;;;1.4;;
59653;SDS011;66556;52.008;5.432;2023-03-05T10:12:34;3.7;;;1.2;;
59653;SDS011;66556;52.008;5.432;2023-03-05T10:16:03;4.91;;;1.3;;
59653;SDS011;66556;52.008;5.432;2023-03-05T10:18:11;6.2;;;2.5;;
59653;SDS011;66556;52.008;5.432;2023-03-05T10:20:02;7.3;;;2.1;;
59653;SDS011;66556;52.008;5.432;2023-03-05T10:21:56;4.91;;;1.9;;
59653;SDS011;66556;52.008;5.432;2023-03-05T10:23:50;4.3;;;2.1;;
59653;SDS011;66556;52.008;5.432;2023-03-05T10:25:50;4.5;;;1.7;;
59653;SDS011;66556;52.008;5.432;2023-03-05T10:27:50;3.2;;;1.5;;
59653;SDS011;66556;52.008;5.432;2023-03-05T10:30:03;4.1;;;1.4;;
59653;SDS011;66556;52.008;5.432;2023-03-05T10:31:56;4.2;;;1.5;;
59653;SDS011;66556;52.008;5.432;2023-03-05T10:33:45;4.3;;;1.5;;
59653;SDS011;66556;52.008;5.432;2023-03-05T10:35:43;4.61;;;1.6;;
59653;SDS011;66556;52.008;5.432;2023-03-05T10:38:11;4.7;;;1.5;;
59653;SDS011;66556;52.008;5.432;2023-03-05T10:40:10;4.3;;;1.8;;
59653;SDS011;66556;52.008;5.432;2023-03-05T10:41:56;6.8;;;1.8;;
59653;SDS011;66556;52.008;5.432;2023-03-05T10:43:45;5.11;;;1.8;;
59653;SDS011;66556;52.008;5.432;2023-03-05T10:47:13;5.2;;;1.6;;
59653;SDS011;66556;52.008;5.432;2023-03-05T10:48:58;5.5;;;1.5;;
59653;SDS011;66556;52.008;5.432;2023-03-05T10:50:39;6.4;;;1.9;;
59653;SDS011;66556;52.008;5.432;2023-03-05T10:52:21;5.0;;;1.5;;
59653;SDS011;66556;52.008;5.432;2023-03-05T10:55:53;5.11;;;2.0;;
59653;SDS011;66556;52.008;5.432;2023-03-05T10:57:30;5.8;;;1.9;;
59653;SDS011;66556;52.008;5.432;2023-03-05T10:59:07;5.2;;;2.21;;
59653;SDS011;66556;52.008;5.432;2023-03-05T11:00:56;10.5;;;5.0;;
59653;SDS011;66556;52.008;5.432;2023-03-05T11:02:51;5.4;;;1.8;;
59653;SDS011;66556;52.008;5.432;2023-03-05T11:06:11;4.7;;;1.7;;
59653;SDS011;66556;52.008;5.432;2023-03-05T11:07:49;7.2;;;1.9;;
59653;SDS011;66556;52.008;5.432;2023-03-05T11:09:26;4.61;;;1.6;;
59653;SDS011;66556;52.008;5.432;2023-03-05T11:11:08;5.3;;;1.7;;
59653;SDS011;66556;52.008;5.432;2023-03-05T11:14:27;7.3;;;1.4;;
59653;SDS011;66556;52.008;5.432;2023-03-05T11:16:05;5.3;;;1.3;;
59653;SDS011;66556;52.008;5.432;2023-03-05T11:18:02;4.5;;;1.4;;
59653;SDS011;66556;52.008;5.432;2023-03-05T11:19:53;4.0;;;1.4;;
59653;SDS011;66556;52.008;5.432;2023-03-05T11:21:31;5.7;;;1.6;;
59653;SDS011;66556;52.008;5.432;2023-03-05T11:25:02;4.41;;;1.4;;
59653;SDS011;66556;52.008;5.432;2023-03-05T11:26:52;5.4;;;1.11;;
59653;SDS011;66556;52.008;5.432;2023-03-05T11:28:33;5.11;;;1.3;;
59653;SDS011;66556;52.008;5.432;2023-03-05T11:30:17;4.3;;;1.2;;
59653;SDS011;66556;52.008;5.432;2023-03-05T11:32:00;2.8;;;1.2;;
59653;SDS011;66556;52.008;5.432;2023-03-05T11:35:35;5.3;;;1.0;;
59653;SDS011;66556;52.008;5.432;2023-03-05T11:37:18;6.3;;;1.2;;
59653;SDS011;66556;52.008;5.432;2023-03-05T11:38:59;3.5;;;1.0;;
59653;SDS011;66556;52.008;5.432;2023-03-05T11:40:46;2.7;;;1.0;;
59653;SDS011;66556;52.008;5.432;2023-03-05T11:42:24;4.91;;;1.7;;
59653;SDS011;66556;52.008;5.432;2023-03-05T11:45:41;4.41;;;1.0;;
59653;SDS011;66556;52.008;5.432;2023-03-05T11:47:22;5.5;;;1.3;;
59653;SDS011;66556;52.008;5.432;2023-03-05T11:49:04;4.2;;;1.2;;
59653;SDS011;66556;52.008;5.432;2023-03-05T11:50:41;4.2;;;0.9;;
59653;SDS011;66556;52.008;5.432;2023-03-05T11:54:05;4.5;;;1.11;;
59653;SDS011;66556;52.008;5.432;2023-03-05T11:55:48;6.8;;;2.1;;
59653;SDS011;66556;52.008;5.432;2023-03-05T11:57:27;5.7;;;2.0;;
59653;SDS011;66556;52.008;5.432;2023-03-05T11:59:17;4.1;;;1.2;;
59653;SDS011;66556;52.008;5.432;2023-03-05T12:02:36;3.8;;;0.9;;
59653;SDS011;66556;52.008;5.432;2023-03-05T12:04:13;4.1;;;1.0;;
59653;SDS011;66556;52.008;5.432;2023-03-05T12:05:52;3.5;;;0.9;;
59653;SDS011;66556;52.008;5.432;2023-03-05T12:07:33;5.0;;;1.2;;
59653;SDS011;66556;52.008;5.432;2023-03-05T12:10:59;4.7;;;1.11;;
59653;SDS011;66556;52.008;5.432;2023-03-05T12:12:52;2.9;;;0.8;;
59653;SDS011;66556;52.008;5.432;2023-03-05T12:14:35;4.2;;;1.2;;
59653;SDS011;66556;52.008;5.432;2023-03-05T12:16:22;6.0;;;1.2;;
59653;SDS011;66556;52.008;5.432;2023-03-05T12:18:10;3.5;;;0.9;;
59653;SDS011;66556;52.008;5.432;2023-03-05T12:21:38;3.7;;;1.2;;
59653;SDS011;66556;52.008;5.432;2023-03-05T12:23:17;4.5;;;1.4;;
59653;SDS011;66556;52.008;5.432;2023-03-05T12:25:15;4.2;;;1.11;;
59653;SDS011;66556;52.008;5.432;2023-03-05T12:27:30;5.11;;;1.3;;
59653;SDS011;66556;52.008;5.432;2023-03-05T12:29:20;4.3;;;1.0;;
59653;SDS011;66556;52.008;5.432;2023-03-05T12:31:04;3.6;;;1.0;;
59653;SDS011;66556;52.008;5.432;2023-03-05T12:33:01;3.4;;;1.11;;
59653;SDS011;66556;52.008;5.432;2023-03-05T12:34:47;4.7;;;1.2;;
59653;SDS011;66556;52.008;5.432;2023-03-05T12:38:17;3.9;;;1.0;;
59653;SDS011;66556;52.008;5.432;2023-03-05T12:40:18;3.5;;;1.0;;
59653;SDS011;66556;52.008;5.432;2023-03-05T12:41:57;3.9;;;1.2;;
59653;SDS011;66556;52.008;5.432;2023-03-05T12:43:34;4.1;;;1.2;;
59653;SDS011;66556;52.008;5.432;2023-03-05T12:45:42;3.7;;;1.11;;
59653;SDS011;66556;52.008;5.432;2023-03-05T12:47:19;4.3;;;1.0;;
59653;SDS011;66556;52.008;5.432;2023-03-05T12:50:48;2.6;;;0.8;;
59653;SDS011;66556;52.008;5.432;2023-03-05T12:52:26;3.2;;;0.9;;